Time;durP1;ratioP1;P1;durP2;ratioP2;P2;SDS_P1;SDS_P2;PMS_P1;PMS_P2;Temp;Humidity;BMP_temperature;BMP_pressure;BME280_temperature;BME280_humidity;BME280_pressure;Samples;Min_cycle;Max_cycle;Signal;HPM_P1;HPM_P2
2022/06/21 00:02:06;;;;;;;6.80;5.30;;;12.80;99.90;;;;;;5020118;28;20573;-69
2022/06/21 00:05:07;;;;;;;6.83;5.20;;;12.80;99.90;;;;;;5016669;28;20483;-69
2022/06/21 00:08:07;;;;;;;7.07;6.30;;;12.70;99.90;;;;;;5023716;28;20665;-69
2022/06/21 00:11:27;;;;;;;7.07;6.07;;;12.70;99.90;;;;;;5025645;28;20489;-68
2022/06/21 00:18:21;;;;;;;7.93;6.17;;;12.80;99.90;;;;;;5026394;28;20570;-68
2022/06/21 00:21:50;;;;;;;8.07;5.83;;;12.80;99.90;;;;;;5013574;28;20455;-68
2022/06/21 00:24:55;;;;;;;7.33;6.20;;;12.80;99.90;;;;;;5021882;28;20587;-68
2022/06/21 00:28:13;;;;;;;8.77;6.50;;;12.70;99.90;;;;;;5019626;28;20456;-68
2022/06/21 00:34:37;;;;;;;8.10;6.13;;;12.70;99.90;;;;;;5021103;28;20515;-69
2022/06/21 00:37:39;;;;;;;9.30;6.90;;;12.80;99.90;;;;;;5023088;28;20451;-68
2022/06/21 00:41:20;;;;;;;10.80;7.57;;;12.80;99.90;;;;;;5024774;28;20618;-68
2022/06/21 00:44:22;;;;;;;10.10;6.53;;;12.70;99.90;;;;;;5023773;28;20518;-69
2022/06/21 00:47:57;;;;;;;8.67;6.80;;;12.70;99.90;;;;;;5024677;28;20842;-68
2022/06/21 00:51:00;;;;;;;10.73;6.13;;;12.70;99.90;;;;;;5020797;28;20576;-68
2022/06/21 00:54:25;;;;;;;8.43;6.43;;;12.60;99.90;;;;;;5018736;28;20476;-69
2022/06/21 00:57:37;;;;;;;8.83;6.40;;;12.70;99.90;;;;;;5016063;28;20447;-68
2022/06/21 01:00:45;;;;;;;9.30;6.23;;;12.60;99.90;;;;;;5017541;28;20808;-69
2022/06/21 01:07:32;;;;;;;6.87;6.17;;;12.70;99.90;;;;;;5010742;28;20547;-68
2022/06/21 01:10:39;;;;;;;9.50;6.10;;;12.60;99.90;;;;;;5023131;28;20520;-68
2022/06/21 01:13:39;;;;;;;11.17;6.83;;;12.70;99.90;;;;;;5018584;28;20845;-68
2022/06/21 01:16:57;;;;;;;7.60;5.80;;;12.60;99.90;;;;;;5021909;28;20551;-69
2022/06/21 01:20:17;;;;;;;8.70;6.03;;;12.50;99.90;;;;;;5023842;28;20629;-68
2022/06/21 01:23:44;;;;;;;8.67;6.40;;;12.60;99.90;;;;;;5015572;28;20471;-68
2022/06/21 01:26:53;;;;;;;8.17;6.20;;;12.60;99.90;;;;;;5018676;28;20467;-68
2022/06/21 01:30:11;;;;;;;9.70;6.73;;;12.50;99.90;;;;;;5023442;28;20458;-68
2022/06/21 01:33:36;;;;;;;8.57;6.10;;;12.40;99.90;;;;;;5011821;28;20494;-69
2022/06/21 01:40:29;;;;;;;10.87;6.90;;;12.40;99.90;;;;;;5018217;28;20467;-69
2022/06/21 01:43:47;;;;;;;9.53;6.70;;;12.40;99.90;;;;;;5019279;28;21257;-68
2022/06/21 01:47:07;;;;;;;9.90;5.70;;;12.40;99.90;;;;;;5019300;28;20495;-68
2022/06/21 01:50:24;;;;;;;11.30;6.63;;;12.40;99.90;;;;;;5019057;28;20456;-69
2022/06/21 01:53:26;;;;;;;9.33;6.03;;;12.40;99.90;;;;;;5021695;28;20979;-68
2022/06/21 01:56:31;;;;;;;8.13;6.60;;;12.40;99.90;;;;;;5010378;28;20479;-68
2022/06/21 02:03:27;;;;;;;10.67;6.90;;;12.50;99.90;;;;;;5018582;28;20551;-69
2022/06/21 02:09:59;;;;;;;12.27;7.27;;;12.30;99.90;;;;;;5018031;28;21007;-69
2022/06/21 02:13:11;;;;;;;13.80;7.60;;;12.40;99.90;;;;;;5021923;28;20542;-69
2022/06/21 02:16:33;;;;;;;11.03;6.50;;;12.30;99.90;;;;;;5018143;28;20499;-69
2022/06/21 02:19:48;;;;;;;10.40;6.87;;;12.30;99.90;;;;;;5016216;28;20444;-69
2022/06/21 02:23:12;;;;;;;8.67;6.90;;;12.20;99.90;;;;;;5020557;28;20506;-68
2022/06/21 02:26:36;;;;;;;10.10;6.83;;;12.20;99.90;;;;;;5016766;28;20900;-68
2022/06/21 02:29:54;;;;;;;13.17;6.63;;;12.10;99.90;;;;;;5014777;28;20896;-69
2022/06/21 02:33:03;;;;;;;10.60;6.57;;;12.10;99.90;;;;;;5012393;28;20457;-69
2022/06/21 02:39:28;;;;;;;10.20;6.83;;;12.00;99.90;;;;;;5020676;28;20938;-69
2022/06/21 02:42:34;;;;;;;9.67;6.80;;;12.00;99.90;;;;;;5022632;28;20455;-69
2022/06/21 02:45:54;;;;;;;14.37;6.90;;;12.00;99.90;;;;;;5011451;28;20475;-69
2022/06/21 02:49:17;;;;;;;12.93;6.20;;;12.10;99.90;;;;;;4994904;28;20961;-68
2022/06/21 02:55:46;;;;;;;8.13;6.20;;;12.00;99.90;;;;;;5021088;28;20486;-68
2022/06/21 02:58:55;;;;;;;10.63;6.30;;;11.90;99.90;;;;;;5020703;28;20471;-70
2022/06/21 03:02:16;;;;;;;8.57;6.43;;;11.90;99.90;;;;;;5015280;28;20482;-69
2022/06/21 03:09:13;;;;;;;9.87;6.47;;;11.80;99.90;;;;;;5021788;28;20468;-68
2022/06/21 03:12:47;;;;;;;9.33;5.97;;;11.80;99.90;;;;;;5018539;28;20501;-68
2022/06/21 03:16:27;;;;;;;12.83;5.63;;;11.90;99.90;;;;;;5014879;28;20487;-68
2022/06/21 03:19:43;;;;;;;10.83;5.97;;;11.80;99.90;;;;;;5015683;28;20467;-69
2022/06/21 03:22:39;;;;;;;9.43;5.50;;;11.90;99.90;;;;;;5014117;28;20447;-70
2022/06/21 03:25:47;;;;;;;11.60;6.30;;;11.90;99.90;;;;;;5018515;28;20471;-68
2022/06/21 03:28:57;;;;;;;10.10;5.70;;;12.00;99.90;;;;;;5021527;28;20990;-68
2022/06/21 03:32:13;;;;;;;8.67;5.23;;;12.00;99.90;;;;;;5016419;28;20558;-68
2022/06/21 03:35:15;;;;;;;8.83;5.30;;;12.00;99.90;;;;;;5004886;28;20570;-69
2022/06/21 03:38:20;;;;;;;10.43;4.97;;;12.00;99.90;;;;;;5015563;28;20813;-68
2022/06/21 03:41:45;;;;;;;10.93;5.47;;;11.90;99.90;;;;;;5015214;28;20454;-68
2022/06/21 03:48:27;;;;;;;10.20;5.10;;;12.00;99.90;;;;;;5019806;28;20459;-68
2022/06/21 03:51:51;;;;;;;8.30;6.00;;;12.00;99.90;;;;;;5015212;28;21015;-69
2022/06/21 03:54:53;;;;;;;8.87;5.40;;;12.00;99.90;;;;;;5011100;28;20675;-69
2022/06/21 03:58:00;;;;;;;7.63;5.60;;;12.00;99.90;;;;;;5023125;28;20509;-69
2022/06/21 04:01:07;;;;;;;13.10;5.13;;;12.10;99.90;;;;;;5016113;28;20540;-69
2022/06/21 04:04:21;;;;;;;9.07;6.07;;;12.10;99.90;;;;;;5033289;28;20502;-69
2022/06/21 04:07:46;;;;;;;;;;;;;;;;;;;;;
2022/06/21 04:11:09;;;;;;;8.90;4.63;;;12.20;99.90;;;;;;5032937;28;20514;-68
2022/06/21 04:14:22;;;;;;;8.63;4.90;;;12.20;99.90;;;;;;5042460;28;20599;-69
2022/06/21 04:17:39;;;;;;;7.63;5.10;;;12.10;99.90;;;;;;5039047;28;20467;-69
2022/06/21 04:20:51;;;;;;;9.03;4.97;;;12.10;99.90;;;;;;5029852;28;20974;-68
2022/06/21 04:24:05;;;;;;;8.57;5.13;;;12.10;99.90;;;;;;5025581;28;20554;-69
2022/06/21 04:27:28;;;;;;;8.80;5.17;;;12.20;99.90;;;;;;5023656;28;20941;-69
2022/06/21 04:37:35;;;;;;;6.80;4.60;;;12.20;99.90;;;;;;5015935;28;21038;-68
2022/06/21 04:40:56;;;;;;;11.70;4.90;;;12.30;99.90;;;;;;5022225;28;21247;-69
2022/06/21 04:47:39;;;;;;;;;;;;;;;;;;;;;
2022/06/21 04:50:55;;;;;;;11.67;4.40;;;12.40;99.90;;;;;;5020618;28;20461;-68
2022/06/21 04:57:36;;;;;;;8.87;4.70;;;12.50;99.90;;;;;;5021356;28;20460;-69
2022/06/21 05:00:45;;;;;;;10.70;4.60;;;12.50;99.90;;;;;;5020892;28;20462;-69
2022/06/21 05:04:03;;;;;;;7.03;4.30;;;12.60;99.90;;;;;;5011654;28;20482;-69
2022/06/21 05:07:15;;;;;;;8.10;3.60;;;12.70;99.90;;;;;;5017255;28;20509;-69
2022/06/21 05:10:27;;;;;;;15.23;5.10;;;12.70;99.90;;;;;;4929551;28;20543;-69
2022/06/21 05:13:58;;;;;;;7.57;4.77;;;12.80;99.90;;;;;;4937014;28;20499;-68
2022/06/21 05:17:01;;;;;;;9.10;4.30;;;12.90;99.90;;;;;;4934649;28;20620;-68
2022/06/21 05:20:15;;;;;;;7.80;4.67;;;12.90;99.90;;;;;;4943615;28;20506;-69
2022/06/21 05:23:28;;;;;;;8.50;3.73;;;13.00;99.90;;;;;;4938031;28;20618;-68
2022/06/21 05:26:35;;;;;;;6.77;3.80;;;13.00;99.90;;;;;;4939116;28;20479;-68
2022/06/21 05:29:53;;;;;;;7.37;4.17;;;13.10;99.90;;;;;;4931465;28;20530;-69
2022/06/21 05:32:54;;;;;;;6.00;4.50;;;13.10;99.90;;;;;;4927457;28;22444;-69
2022/06/21 05:36:09;;;;;;;10.40;4.30;;;13.20;99.90;;;;;;4934687;28;20656;-69
2022/06/21 05:39:30;;;;;;;8.30;3.97;;;13.30;99.90;;;;;;4929760;28;20466;-69
2022/06/21 05:42:57;;;;;;;9.90;3.97;;;13.30;99.90;;;;;;4930715;28;20471;-69
2022/06/21 05:46:16;;;;;;;;;;;;;;;;;;;;;
2022/06/21 05:49:48;;;;;;;9.20;3.80;;;13.50;99.90;;;;;;5014247;28;20477;-70
2022/06/21 05:52:57;;;;;;;6.83;3.50;;;13.50;99.90;;;;;;4993957;28;20872;-69
2022/06/21 05:55:55;;;;;;;7.50;4.07;;;13.60;99.90;;;;;;5016997;28;20490;-69
2022/06/21 05:59:27;;;;;;;6.13;3.37;;;13.70;99.90;;;;;;5018663;28;20467;-69
2022/06/21 06:02:41;;;;;;;9.00;3.60;;;13.70;99.90;;;;;;5013527;28;20451;-69
2022/06/21 06:05:35;;;;;;;9.57;3.37;;;13.80;99.90;;;;;;4999104;28;20497;-69
2022/06/21 06:08:27;;;;;;;9.53;3.20;;;13.80;99.90;;;;;;5007841;28;20467;-69
2022/06/21 06:11:27;;;;;;;6.80;3.20;;;13.90;99.90;;;;;;5020154;28;21232;-68
2022/06/21 06:14:40;;;;;;;10.07;4.03;;;14.00;99.90;;;;;;5012894;28;20498;-69
2022/06/21 06:17:41;;;;;;;6.00;3.53;;;14.00;99.90;;;;;;5021805;28;20447;-69
2022/06/21 06:20:42;;;;;;;8.97;3.83;;;14.00;99.90;;;;;;5018844;28;20938;-69
2022/06/21 06:23:40;;;;;;;4.37;2.97;;;14.10;99.90;;;;;;5016785;28;20448;-69
2022/06/21 06:26:37;;;;;;;9.73;3.73;;;14.10;99.90;;;;;;5021006;28;20566;-69
2022/06/21 06:29:49;;;;;;;11.73;3.90;;;14.20;99.90;;;;;;5018840;28;20459;-69
2022/06/21 06:32:45;;;;;;;4.87;3.20;;;14.30;99.90;;;;;;5021333;28;20533;-69
2022/06/21 06:35:40;;;;;;;9.40;3.97;;;14.30;99.90;;;;;;5017119;28;20487;-69
2022/06/21 06:38:34;;;;;;;5.60;3.10;;;14.40;99.90;;;;;;5020875;28;20640;-69
2022/06/21 06:41:28;;;;;;;5.10;3.07;;;14.50;99.90;;;;;;5020398;28;20955;-69
2022/06/21 06:44:26;;;;;;;5.17;3.40;;;14.50;99.90;;;;;;5019871;28;20560;-69
2022/06/21 06:47:21;;;;;;;7.97;3.30;;;14.60;99.90;;;;;;5019790;28;20678;-70
2022/06/21 06:50:19;;;;;;;7.90;3.00;;;14.60;99.90;;;;;;5021210;28;20650;-69
2022/06/21 06:53:12;;;;;;;7.63;3.10;;;14.70;99.90;;;;;;5016394;28;20475;-69
2022/06/21 06:56:12;;;;;;;4.23;2.80;;;14.80;99.90;;;;;;5017549;28;20538;-70
2022/06/21 06:59:05;;;;;;;9.47;4.13;;;14.80;99.90;;;;;;5020439;28;21013;-69
2022/06/21 07:02:00;;;;;;;8.37;3.30;;;14.90;99.90;;;;;;5017492;28;20550;-69
2022/06/21 07:05:00;;;;;;;5.73;3.40;;;14.90;99.90;;;;;;5019644;28;21006;-69
2022/06/21 07:07:52;;;;;;;4.07;2.70;;;15.00;99.90;;;;;;5019885;28;20455;-69
2022/06/21 07:10:44;;;;;;;8.13;3.93;;;15.10;99.90;;;;;;5019830;28;20546;-70
2022/06/21 07:13:34;;;;;;;8.10;4.00;;;15.20;99.90;;;;;;5021547;28;20558;-69
2022/06/21 07:16:25;;;;;;;7.10;3.27;;;15.20;99.90;;;;;;5018478;28;20614;-69
2022/06/21 07:19:13;;;;;;;6.30;2.90;;;15.20;99.90;;;;;;5019380;28;20452;-70
2022/06/21 07:22:01;;;;;;;5.30;3.07;;;15.20;99.90;;;;;;5015877;28;20859;-70
2022/06/21 07:24:59;;;;;;;8.37;3.30;;;15.30;99.90;;;;;;5018169;28;20480;-69
2022/06/21 07:27:52;;;;;;;7.23;3.50;;;15.30;99.90;;;;;;5021540;28;20541;-70
2022/06/21 07:30:46;;;;;;;5.53;3.13;;;15.40;99.90;;;;;;5021681;28;20514;-69
2022/06/21 07:33:39;;;;;;;5.73;3.40;;;15.50;99.90;;;;;;5020872;28;20475;-69
2022/06/21 07:36:32;;;;;;;6.40;2.90;;;15.60;99.90;;;;;;5022936;28;20590;-69
2022/06/21 07:39:27;;;;;;;5.90;3.00;;;15.60;99.90;;;;;;5023402;28;20455;-69
2022/06/21 07:42:20;;;;;;;4.20;3.10;;;15.70;99.90;;;;;;5022324;28;20492;-69
2022/06/21 07:45:14;;;;;;;6.60;3.20;;;15.80;99.90;;;;;;5026283;28;20503;-69
2022/06/21 07:48:08;;;;;;;3.13;2.73;;;15.80;99.90;;;;;;5025761;28;20470;-69
2022/06/21 07:51:05;;;;;;;5.03;2.87;;;15.90;99.90;;;;;;5018822;28;21076;-69
2022/06/21 07:53:59;;;;;;;7.50;3.40;;;15.90;99.90;;;;;;5021113;28;20484;-69
2022/06/21 07:56:54;;;;;;;6.40;3.30;;;16.00;99.90;;;;;;5027626;28;20520;-69
2022/06/21 07:59:48;;;;;;;7.83;3.07;;;16.00;99.90;;;;;;5026365;28;20537;-69
2022/06/21 08:09:12;;;;;;;5.90;3.00;;;16.20;99.90;;;;;;5020687;28;20451;-69
2022/06/21 08:12:01;;;;;;;5.07;3.00;;;16.30;99.90;;;;;;5023876;28;20621;-70
2022/06/21 08:14:53;;;;;;;3.97;2.60;;;16.30;99.90;;;;;;5025218;28;20474;-70
2022/06/21 08:17:46;;;;;;;4.90;2.67;;;16.40;99.90;;;;;;5025424;28;20551;-69
2022/06/21 08:20:44;;;;;;;3.40;2.70;;;16.40;99.90;;;;;;5026337;28;21175;-69
2022/06/21 08:23:47;;;;;;;6.90;2.90;;;16.40;99.90;;;;;;5022479;28;20908;-69
2022/06/21 08:26:40;;;;;;;3.80;2.90;;;16.50;99.90;;;;;;5020528;28;20479;-70
2022/06/21 08:29:33;;;;;;;6.70;3.37;;;16.60;99.90;;;;;;5024011;28;20541;-70
2022/06/21 08:32:27;;;;;;;4.30;2.90;;;16.60;99.90;;;;;;5020605;28;20951;-69
2022/06/21 08:35:23;;;;;;;5.00;2.73;;;16.70;99.90;;;;;;5026952;28;20495;-70
2022/06/21 08:38:23;;;;;;;4.57;2.70;;;16.80;99.90;;;;;;5041008;28;20456;-71
2022/06/21 08:41:55;;;;;;;4.00;2.47;;;16.90;99.90;;;;;;5044620;28;20507;-69
2022/06/21 08:45:43;;;;;;;5.60;2.47;;;16.90;99.90;;;;;;5029731;28;20483;-70
2022/06/21 08:48:58;;;;;;;4.30;2.20;;;17.00;99.90;;;;;;4962550;28;20503;-69
2022/06/21 08:52:03;;;;;;;5.53;2.93;;;17.10;99.90;;;;;;5034005;28;20452;-69
2022/06/21 08:55:03;;;;;;;3.87;3.00;;;17.10;99.90;;;;;;5022580;28;20677;-69
2022/06/21 08:58:04;;;;;;;6.10;3.03;;;17.20;99.90;;;;;;5020321;28;20994;-70
2022/06/21 09:01:01;;;;;;;3.73;2.83;;;17.30;99.90;;;;;;5015396;28;20452;-70
2022/06/21 09:04:12;;;;;;;4.80;2.87;;;17.30;99.90;;;;;;5019393;28;20979;-67
2022/06/21 09:07:23;;;;;;;6.80;3.30;;;17.50;99.90;;;;;;5020712;28;20466;-67
2022/06/21 09:10:29;;;;;;;4.80;2.83;;;17.50;99.90;;;;;;5022323;28;20955;-67
2022/06/21 09:13:36;;;;;;;3.60;2.77;;;17.60;99.90;;;;;;5025047;28;20464;-67
2022/06/21 09:16:32;;;;;;;2.90;2.70;;;17.70;99.90;;;;;;5016948;28;20624;-67
2022/06/21 09:19:32;;;;;;;6.53;2.97;;;17.80;99.90;;;;;;5019352;28;20456;-67
2022/06/21 09:22:30;;;;;;;3.50;2.77;;;17.90;99.90;;;;;;5021838;28;20603;-67
2022/06/21 09:25:28;;;;;;;4.10;2.63;;;17.90;99.90;;;;;;5025989;28;20572;-67
2022/06/21 09:28:30;;;;;;;4.13;2.67;;;17.90;99.90;;;;;;5021663;28;20585;-70
2022/06/21 09:31:25;;;;;;;4.47;2.50;;;17.90;99.90;;;;;;5022111;28;20510;-69
2022/06/21 09:34:28;;;;;;;7.83;3.00;;;18.00;99.90;;;;;;5020765;28;20509;-70
2022/06/21 09:37:27;;;;;;;3.40;2.87;;;18.10;99.90;;;;;;5022594;28;20467;-70
2022/06/21 09:40:24;;;;;;;4.13;2.33;;;18.20;99.90;;;;;;5024438;28;20546;-69
2022/06/21 09:43:45;;;;;;;3.33;2.40;;;18.30;99.90;;;;;;5016775;28;20469;-70
2022/06/21 09:46:42;;;;;;;3.00;2.20;;;18.40;99.90;;;;;;5024147;28;20478;-70
2022/06/21 09:49:40;;;;;;;7.17;2.80;;;18.40;99.90;;;;;;5023166;28;20479;-69
2022/06/21 09:52:38;;;;;;;3.17;2.10;;;18.50;99.90;;;;;;5019673;28;20669;-70
2022/06/21 09:55:43;;;;;;;4.27;2.80;;;18.60;99.90;;;;;;5019998;28;20605;-69
2022/06/21 09:58:41;;;;;;;4.43;2.40;;;18.70;99.90;;;;;;5023884;28;20502;-70
2022/06/21 10:01:37;;;;;;;7.23;2.70;;;18.60;99.90;;;;;;5022850;28;20471;-70
2022/06/21 10:04:40;;;;;;;3.50;2.50;;;18.60;99.90;;;;;;5016423;28;20490;-69
2022/06/21 10:07:45;;;;;;;3.63;2.73;;;18.70;99.90;;;;;;5025101;28;20474;-70
2022/06/21 10:10:45;;;;;;;5.87;2.97;;;18.70;99.90;;;;;;5023525;28;20913;-69
2022/06/21 10:14:04;;;;;;;5.93;2.43;;;18.80;99.90;;;;;;5020262;28;20463;-70
2022/06/21 10:17:07;;;;;;;3.20;2.67;;;18.90;99.90;;;;;;5014887;28;20704;-70
2022/06/21 10:20:20;;;;;;;3.40;2.60;;;19.00;99.90;;;;;;5021361;28;20542;-67
2022/06/21 10:23:38;;;;;;;3.70;2.83;;;19.00;99.90;;;;;;5020637;28;20839;-69
2022/06/21 10:26:50;;;;;;;9.30;2.60;;;19.10;99.90;;;;;;5020847;28;20494;-70
2022/06/21 10:29:56;;;;;;;2.80;2.60;;;19.10;99.90;;;;;;5019047;28;20508;-70
2022/06/21 10:33:06;;;;;;;3.50;2.23;;;19.10;99.90;;;;;;5022859;28;20462;-69
2022/06/21 10:36:10;;;;;;;2.87;2.33;;;19.10;99.90;;;;;;5018977;28;21190;-70
2022/06/21 10:39:13;;;;;;;5.07;2.20;;;19.20;99.90;;;;;;5018715;28;20463;-69
2022/06/21 10:45:47;;;;;;;3.40;2.10;;;19.30;99.90;;;;;;5020001;28;20581;-69
2022/06/21 10:49:10;;;;;;;3.80;2.00;;;19.30;99.90;;;;;;5018383;28;20459;-70
2022/06/21 10:52:24;;;;;;;4.70;1.93;;;19.40;99.90;;;;;;5016684;28;20513;-69
2022/06/21 10:55:43;;;;;;;2.87;2.03;;;19.50;99.90;;;;;;5018383;28;20950;-70
2022/06/21 10:58:48;;;;;;;5.03;2.80;;;19.60;99.90;;;;;;5020044;28;20546;-69
2022/06/21 11:01:44;;;;;;;2.90;2.33;;;19.70;99.90;;;;;;5016832;28;20606;-70
2022/06/21 11:04:51;;;;;;;3.13;2.17;;;19.80;99.90;;;;;;5014617;28;20630;-68
2022/06/21 11:07:49;;;;;;;3.30;2.50;;;20.00;99.90;;;;;;5016324;28;20528;-68
2022/06/21 11:10:44;;;;;;;2.97;2.70;;;20.10;99.90;;;;;;5019978;28;20866;-68
2022/06/21 11:13:37;;;;;;;2.60;2.20;;;20.20;99.90;;;;;;5023084;28;20926;-68
2022/06/21 11:16:38;;;;;;;3.83;2.50;;;20.20;99.90;;;;;;5022163;28;20550;-69
2022/06/21 11:19:39;;;;;;;4.27;2.67;;;20.30;99.90;;;;;;5023593;28;20451;-68
2022/06/21 11:22:40;;;;;;;3.53;2.40;;;20.40;99.90;;;;;;5023192;28;20499;-68
2022/06/21 11:25:39;;;;;;;4.70;2.77;;;20.50;99.90;;;;;;5022960;28;20612;-69
2022/06/21 11:28:42;;;;;;;4.50;2.80;;;20.60;99.90;;;;;;5023301;28;20440;-66
2022/06/21 11:31:41;;;;;;;5.30;4.23;;;20.80;99.90;;;;;;5021651;28;20991;-66
2022/06/21 11:34:47;;;;;;;6.23;4.33;;;20.80;99.90;;;;;;5020612;28;20497;-67
2022/06/21 11:37:49;;;;;;;6.97;6.27;;;20.90;99.90;;;;;;5026330;28;20459;-67
2022/06/21 11:40:50;;;;;;;7.50;4.10;;;21.00;99.90;;;;;;5025582;28;20443;-68
2022/06/21 11:43:51;;;;;;;11.70;8.97;;;21.00;99.90;;;;;;5019806;28;20464;-67
2022/06/21 11:46:46;;;;;;;4.93;4.03;;;21.20;99.90;;;;;;5026508;28;20462;-68
2022/06/21 11:49:39;;;;;;;10.20;7.33;;;21.20;99.90;;;;;;5021704;28;20486;-67
2022/06/21 11:52:59;;;;;;;4.20;3.43;;;21.30;99.90;;;;;;5024720;28;20605;-67
2022/06/21 11:55:55;;;;;;;5.40;3.40;;;21.30;99.90;;;;;;5027642;28;20483;-67
2022/06/21 11:58:51;;;;;;;3.70;3.30;;;21.40;99.90;;;;;;5024141;28;20512;-67
2022/06/21 12:01:46;;;;;;;11.03;7.47;;;21.50;99.90;;;;;;5023357;28;20487;-67
2022/06/21 12:04:47;;;;;;;11.17;7.60;;;21.60;99.90;;;;;;5023814;28;20873;-67
2022/06/21 12:07:43;;;;;;;11.43;5.07;;;21.60;99.90;;;;;;5025522;28;20482;-67
2022/06/21 12:10:44;;;;;;;7.83;3.27;;;21.70;99.90;;;;;;5022159;28;20538;-67
2022/06/21 12:13:48;;;;;;;5.10;4.20;;;21.80;99.90;;;;;;5025268;28;20463;-67
2022/06/21 12:16:44;;;;;;;3.70;3.40;;;22.00;99.90;;;;;;5016121;28;20522;-68
2022/06/21 12:19:40;;;;;;;3.57;3.27;;;22.00;99.90;;;;;;5018836;28;20469;-67
2022/06/21 12:22:37;;;;;;;3.80;3.03;;;22.00;99.90;;;;;;5014822;28;20518;-67
2022/06/21 12:25:26;;;;;;;4.47;3.10;;;22.10;99.90;;;;;;5017275;28;21124;-68
2022/06/21 12:28:25;;;;;;;4.47;3.13;;;22.20;99.90;;;;;;5024998;28;20826;-67
2022/06/21 12:31:26;;;;;;;5.60;4.17;;;22.30;99.90;;;;;;5022155;28;20565;-68
2022/06/21 12:34:23;;;;;;;4.53;3.47;;;22.50;99.90;;;;;;5022378;28;20523;-67
2022/06/21 12:37:15;;;;;;;5.13;3.80;;;22.60;99.90;;;;;;5022126;28;20892;-67
2022/06/21 12:40:15;;;;;;;3.13;2.80;;;22.70;99.90;;;;;;5017122;28;21212;-67
2022/06/21 12:43:24;;;;;;;2.60;2.40;;;22.90;99.90;;;;;;5018179;28;20594;-67
2022/06/21 12:46:21;;;;;;;4.37;3.63;;;23.10;99.90;;;;;;5018162;28;20637;-67
2022/06/21 12:49:27;;;;;;;2.53;2.30;;;23.30;99.90;;;;;;5022746;28;20459;-67
2022/06/21 12:52:28;;;;;;;4.10;2.70;;;23.40;99.90;;;;;;5021149;28;20517;-67
2022/06/21 12:55:30;;;;;;;3.00;2.70;;;23.50;99.90;;;;;;5021328;28;20947;-67
2022/06/21 12:58:32;;;;;;;2.43;2.10;;;23.70;99.90;;;;;;5020395;28;20620;-67
2022/06/21 13:01:27;;;;;;;5.10;2.57;;;23.80;99.90;;;;;;5016199;28;20447;-67
2022/06/21 13:04:36;;;;;;;2.40;2.10;;;23.90;99.90;;;;;;5026503;28;20537;-67
2022/06/21 13:07:49;;;;;;;4.13;2.50;;;24.10;99.90;;;;;;5023358;28;20536;-67
2022/06/21 13:10:46;;;;;;;4.60;2.60;;;24.10;99.90;;;;;;5016776;28;20770;-68
2022/06/21 13:13:52;;;;;;;2.20;2.00;;;24.20;99.90;;;;;;5024378;28;20494;-67
2022/06/21 13:16:50;;;;;;;2.37;1.93;;;24.30;99.90;;;;;;5025726;28;21160;-67
2022/06/21 13:19:51;;;;;;;3.57;2.77;;;24.40;99.90;;;;;;5025529;28;20444;-68
2022/06/21 13:22:54;;;;;;;2.50;2.30;;;24.50;99.90;;;;;;5025096;28;20466;-68
2022/06/21 13:25:55;;;;;;;4.93;2.30;;;24.50;99.90;;;;;;5012602;28;20574;-68
2022/06/21 13:29:10;;;;;;;2.57;2.37;;;24.60;99.90;;;;;;5018413;28;20458;-67
2022/06/21 13:32:03;;;;;;;3.27;2.37;;;24.70;99.90;;;;;;5013219;28;20474;-68
2022/06/21 13:34:59;;;;;;;3.23;2.10;;;24.70;99.90;;;;;;5016394;28;20502;-68
2022/06/21 13:37:59;;;;;;;3.07;2.00;;;24.80;99.90;;;;;;5017485;28;20895;-68
2022/06/21 13:40:54;;;;;;;3.50;2.33;;;24.80;99.90;;;;;;5018905;28;20455;-69
2022/06/21 13:43:46;;;;;;;2.50;2.20;;;24.80;99.90;;;;;;5020085;28;20549;-68
2022/06/21 13:46:41;;;;;;;3.20;1.80;;;24.80;99.90;;;;;;5014360;28;21095;-68
2022/06/21 13:49:35;;;;;;;5.67;2.20;;;24.90;99.90;;;;;;5015103;28;20459;-68
2022/06/21 13:52:29;;;;;;;2.37;2.17;;;24.90;99.90;;;;;;5007587;28;20515;-68
2022/06/21 13:55:46;;;;;;;2.87;2.33;;;25.00;99.90;;;;;;5005646;28;20525;-68
2022/06/21 13:58:38;;;;;;;3.53;2.20;;;24.90;99.90;;;;;;5007291;28;20566;-68
2022/06/21 14:01:35;;;;;;;3.83;2.30;;;24.80;99.90;;;;;;5011514;28;20531;-68
2022/06/21 14:04:33;;;;;;;3.50;2.50;;;24.60;99.90;;;;;;5012732;28;20494;-68
2022/06/21 14:07:34;;;;;;;2.33;2.13;;;24.60;99.90;;;;;;5017295;28;20578;-68
2022/06/21 14:10:34;;;;;;;4.17;2.53;;;24.60;99.90;;;;;;5012299;28;20447;-68
2022/06/21 14:13:30;;;;;;;3.30;2.50;;;24.70;99.90;;;;;;5008462;28;20458;-68
2022/06/21 14:16:31;;;;;;;4.40;3.07;;;24.80;99.90;;;;;;5013585;28;20480;-68
2022/06/21 14:19:28;;;;;;;4.30;2.13;;;25.00;99.90;;;;;;5011367;28;21008;-68
2022/06/21 14:22:20;;;;;;;3.30;2.53;;;25.10;99.90;;;;;;5007197;28;20546;-69
2022/06/21 14:25:24;;;;;;;2.23;2.03;;;25.10;99.90;;;;;;5008701;28;20487;-69
2022/06/21 14:28:20;;;;;;;3.50;2.30;;;25.10;99.90;;;;;;5002122;28;20527;-68
2022/06/21 14:31:14;;;;;;;3.70;2.33;;;25.10;99.90;;;;;;5015039;28;20458;-69
2022/06/21 14:34:13;;;;;;;3.07;2.60;;;25.20;99.90;;;;;;5017367;28;20491;-67
2022/06/21 14:37:13;;;;;;;4.50;2.57;;;25.30;99.90;;;;;;5008638;28;20475;-68
2022/06/21 14:40:08;;;;;;;3.50;2.40;;;25.40;99.90;;;;;;4995879;28;20466;-68
2022/06/21 14:43:06;;;;;;;2.43;2.20;;;25.50;99.90;;;;;;4998618;28;20548;-70
2022/06/21 14:45:59;;;;;;;3.53;2.73;;;25.70;99.90;;;;;;5015782;28;21015;-70
2022/06/21 14:48:52;;;;;;;3.23;2.70;;;25.90;99.90;;;;;;5013190;28;20448;-70
2022/06/21 14:51:52;;;;;;;2.40;2.20;;;25.90;99.90;;;;;;5014051;28;20554;-69
2022/06/21 14:55:02;;;;;;;4.13;2.43;;;26.00;99.90;;;;;;5015812;28;20483;-70
2022/06/21 14:58:07;;;;;;;2.40;2.30;;;26.10;99.90;;;;;;5014043;28;20467;-70
2022/06/21 15:01:00;;;;;;;3.20;2.50;;;26.10;99.90;;;;;;5008563;28;20479;-71
2022/06/21 15:03:55;;;;;;;4.40;2.53;;;26.00;99.90;;;;;;5016751;28;20526;-69
2022/06/21 15:07:04;;;;;;;4.50;2.60;;;26.00;99.90;;;;;;5007527;28;20495;-71
2022/06/21 15:09:57;;;;;;;3.07;2.70;;;26.00;99.90;;;;;;5012352;28;20470;-71
2022/06/21 15:13:12;;;;;;;3.87;2.90;;;26.10;99.90;;;;;;5010994;28;20456;-71
2022/06/21 15:16:13;;;;;;;4.00;2.60;;;26.20;99.90;;;;;;5007789;28;20705;-71
2022/06/21 15:19:53;;;;;;;4.37;3.20;;;26.30;99.90;;;;;;5006618;28;21422;-69
2022/06/21 15:22:43;;;;;;;4.70;2.43;;;26.30;99.90;;;;;;5001785;28;20474;-66
2022/06/21 15:25:55;;;;;;;4.90;2.60;;;26.40;99.90;;;;;;4996616;28;20488;-67
2022/06/21 15:28:48;;;;;;;3.30;2.63;;;26.40;99.90;;;;;;5013948;28;20459;-70
2022/06/21 15:31:46;;;;;;;2.60;2.40;;;26.40;99.90;;;;;;5015207;28;20518;-70
2022/06/21 15:34:41;;;;;;;2.23;2.10;;;26.40;99.90;;;;;;5014380;28;20491;-69
2022/06/21 15:37:37;;;;;;;3.80;2.87;;;26.50;99.90;;;;;;5012767;28;20464;-69
2022/06/21 15:40:31;;;;;;;4.60;2.70;;;26.50;99.90;;;;;;5015717;28;20509;-69
2022/06/21 15:43:26;;;;;;;2.90;2.20;;;26.50;99.90;;;;;;5015226;28;20505;-70
2022/06/21 15:46:19;;;;;;;3.10;2.63;;;26.60;99.90;;;;;;5009895;28;20534;-70
2022/06/21 15:52:28;;;;;;;2.70;2.50;;;26.70;99.90;;;;;;5010869;28;20483;-67
2022/06/21 15:55:25;;;;;;;3.60;2.70;;;26.40;99.90;;;;;;5013719;28;20935;-68
2022/06/21 15:58:28;;;;;;;2.77;2.43;;;26.30;99.90;;;;;;5021007;28;20496;-68
2022/06/21 16:01:27;;;;;;;2.70;2.50;;;26.20;99.90;;;;;;5011720;28;20444;-67
2022/06/21 16:04:29;;;;;;;2.90;2.60;;;26.20;99.90;;;;;;5016971;28;20482;-66
2022/06/21 16:07:20;;;;;;;3.40;2.60;;;26.20;99.90;;;;;;5016305;28;20522;-65
2022/06/21 16:10:22;;;;;;;4.00;2.70;;;26.30;99.90;;;;;;5015337;28;20444;-67
2022/06/21 16:13:15;;;;;;;4.93;2.63;;;26.30;99.90;;;;;;5022031;28;20550;-68
2022/06/21 16:16:06;;;;;;;2.83;2.50;;;26.30;99.90;;;;;;5017650;28;20483;-67
2022/06/21 16:18:57;;;;;;;3.33;2.60;;;26.30;99.90;;;;;;5019552;28;20891;-67
2022/06/21 16:21:52;;;;;;;3.63;2.70;;;26.40;99.90;;;;;;5017295;28;20458;-67
2022/06/21 16:24:54;;;;;;;2.97;2.53;;;26.40;99.90;;;;;;5019978;28;20486;-68
2022/06/21 16:27:48;;;;;;;5.53;2.90;;;26.30;99.90;;;;;;5017557;28;20492;-67
2022/06/21 16:30:45;;;;;;;2.50;2.40;;;26.20;99.90;;;;;;5013492;28;20458;-68
2022/06/21 16:33:33;;;;;;;4.27;2.50;;;26.00;99.90;;;;;;5013201;28;20458;-69
2022/06/21 16:36:30;;;;;;;2.87;2.67;;;25.80;99.90;;;;;;5008572;28;20568;-68
2022/06/21 16:39:29;;;;;;;4.50;3.00;;;25.60;99.90;;;;;;5015373;28;20467;-68
2022/06/21 16:45:37;;;;;;;5.50;3.17;;;25.20;99.90;;;;;;5018996;28;20511;-68
2022/06/21 16:48:36;;;;;;;3.43;3.00;;;25.10;99.90;;;;;;5022235;28;20518;-69
2022/06/21 16:51:30;;;;;;;3.23;2.90;;;24.90;99.90;;;;;;5021664;28;20522;-69
2022/06/21 16:54:29;;;;;;;3.00;2.47;;;24.80;99.90;;;;;;5021802;28;20508;-69
2022/06/21 16:57:28;;;;;;;3.93;2.60;;;24.70;99.90;;;;;;5017113;28;20542;-69
2022/06/21 17:00:30;;;;;;;3.00;2.80;;;24.70;99.90;;;;;;5001201;28;20451;-69
2022/06/21 17:03:19;;;;;;;5.00;2.97;;;24.60;99.90;;;;;;5016164;28;20459;-67
2022/06/21 17:06:13;;;;;;;3.07;2.80;;;24.60;99.90;;;;;;5009531;28;20971;-67